Grand Narrows, Canada
Current Conditions -  °F | °C
As of 9:00 AM on Wednesday 26 Nov 2014 (Local Time) from CYPD Reporting Station
Scattered Clouds Scattered Clouds  
Wind Chill: 38°   Ceiling: Unl
Heat Index: 45°   Visibility: 9mi
Dew Point: 30°   Wind: 14mph
Humidity: 57%   Direction: 290°WNW
Pressure: 30.14"   Gusts: 22mph
Location:  45.95°N, 60.78°W
Report Text: CYPD 261300Z AUTO 29012G19KT 9SM SCT140 07/M01 A3014 RMK SLP208
Loading
Personal Weather Stations






























Interactive Weather Map New forecast layout! Learn more

10-Day Weather Forecast

Advertisements
Track Severe Weather on mobile